Terminal Aerodrome Forecast
Issued by NWS Memphis, TN

Home | Current Version | Previous Version | Text Only | Print | Product List | Glossary On
Versions: 1 2 3 4 5 6 7 8 9 10 11 12 13 14 15 16 17 18 19
000
FTUS44 KMEG 191200 AAA
TAFMKL
TAF AMD
KMKL 191232Z 1913/2012 00000KT P6SM SCT050
     FM191500 10004KT P6SM SCT040
     FM200300 00000KT P6SM SKC
      TEMPO 2008/2012 2SM BR=

USA.gov is the U.S. government's official web portal to all federal, state and local government web resources and services.